Terminal Aerodrome Forecast
Issued by NWS

Home | Current Version | Previous Version | Text Only | Print | Product List | Glossary On
Versions: 1 2 3 4 5 6 7 8 9 10 11 12
296
FTUS42 TJSJ 241741
TAFNCM
TAF
TNCM 241741Z 2418/2518 10013KT P6SM SCT022
     FM242300 08009KT P6SM SCT018
     FM251300 09013KT P6SM SCT022=

USA.gov is the U.S. government's official web portal to all federal, state and local government web resources and services.